• Join FlightAware (Why Join?)
  • Login
  • US Flag 
09:34PM EST


 

Airport Tracker/Info


-or-


 

Live Flight TrackerFlight Track Log ✈ C-FXDD ✈ 28-Jun-2014 ✈ CYAV - CYQL

Flight Track Log - Related Links

Times and Time Zones

All times are in EDT time to prevent confusion due to time zone crossing. See the C-FXDD flight status page for this flight to view local times or setup timezone preferences in your user account.

Time Position Orientation Groundspeed Altitude Reporting Facility
EDT Latitude Longitude Course Direction KTS MPH feet Rate Location/Type
03:45PM 49.0006 -105.1544 270° West  Level FlightAware Approximate
03:46PM 49.0007 -105.2189 270° West  Level FlightAware Approximate
03:47PM 49.0009 -105.2833 270° West  Level FlightAware Approximate
03:48PM 49.0010 -105.3478 270° West  Level FlightAware Approximate
03:49PM 49.0010 -105.4123 270° West  Level FlightAware Approximate
03:50PM 49.0011 -105.4768 270° West  Level FlightAware Approximate
03:51PM 49.0011 -105.5413 270° West  Level FlightAware Approximate
03:52PM 49.0010 -105.6057 270° West  Level FlightAware Approximate
03:53PM 49.0010 -105.6702 270° West  Level FlightAware Approximate
03:54PM 49.0008 -105.7347 270° West  Level FlightAware Approximate
03:55PM 49.0007 -105.7992 270° West  Level FlightAware Approximate
03:56PM 49.0005 -105.8636 270° West  Level FlightAware Approximate
03:57PM 49.0003 -105.9281 270° West  Level FlightAware Approximate
03:58PM 49.0000 -105.9926 270° West  Level FlightAware Approximate
03:59PM 49.0057 -106.0564 279° West  Level FlightAware Approximate
04:00PM 49.0120 -106.1201 279° West  Level FlightAware Approximate
04:01PM 49.0167 -106.1841 270° West  Level FlightAware Approximate
04:02PM 49.0207 -106.2480 281° West  Level FlightAware Approximate
04:03PM 49.0288 -106.3113 281° West  Level FlightAware Approximate
04:04PM 49.0368 -106.3747 281° West  Level FlightAware Approximate
04:05PM 49.0448 -106.4380 281° West  Level FlightAware Approximate
04:06PM 49.0528 -106.5014 281° West  Level FlightAware Approximate
04:07PM 49.0607 -106.5648 281° West  Level FlightAware Approximate
04:08PM 49.0686 -106.6283 281° West  Level FlightAware Approximate
04:09PM 49.0765 -106.6917 281° West  Level FlightAware Approximate
04:10PM 49.0843 -106.7552 281° West  Level FlightAware Approximate
04:11PM 49.0921 -106.8186 281° West  Level FlightAware Approximate
04:12PM 49.0999 -106.8821 281° West  Level FlightAware Approximate
04:13PM 49.1070 -106.9458 280° West  Level FlightAware Approximate
04:14PM 49.1141 -107.0095 280° West  Level FlightAware Approximate
04:15PM 49.1212 -107.0732 280° West  Level FlightAware Approximate
04:16PM 49.1283 -107.1370 280° West  Level FlightAware Approximate
04:17PM 49.1353 -107.2007 280° West  Level FlightAware Approximate
04:18PM 49.1423 -107.2645 280° West  Level FlightAware Approximate
04:19PM 49.1492 -107.3283 279° West  Level FlightAware Approximate
04:20PM 49.1561 -107.3921 279° West  Level FlightAware Approximate
04:21PM 49.1630 -107.4559 279° West  Level FlightAware Approximate
04:22PM 49.1698 -107.5197 279° West  Level FlightAware Approximate
04:23PM 49.1767 -107.5836 279° West  Level FlightAware Approximate
04:24PM 49.1834 -107.6475 279° West  Level FlightAware Approximate
04:25PM 49.1902 -107.7114 279° West  Level FlightAware Approximate
04:26PM 49.1968 -107.7753 279° West  Level FlightAware Approximate
04:27PM 49.2035 -107.8392 279° West  Level FlightAware Approximate
04:28PM 49.2102 -107.9032 279° West  Level FlightAware Approximate
04:29PM 49.2167 -107.9671 279° West  Level FlightAware Approximate
04:30PM 49.2233 -108.0311 279° West  Level FlightAware Approximate
04:31PM 49.2298 -108.0951 279° West  Level FlightAware Approximate
04:32PM 49.2363 -108.1591 279° West  Level FlightAware Approximate
04:33PM 49.2428 -108.2231 279° West  Level FlightAware Approximate
04:34PM 49.2492 -108.2872 279° West  Level FlightAware Approximate
04:35PM 49.2556 -108.3512 279° West  Level FlightAware Approximate
04:36PM 49.2619 -108.4153 279° West  Level FlightAware Approximate
04:37PM 49.2682 -108.4794 279° West  Level FlightAware Approximate
04:38PM 49.2745 -108.5435 279° West  Level FlightAware Approximate
04:39PM 49.2807 -108.6077 279° West  Level FlightAware Approximate
04:40PM 49.2869 -108.6718 278° West  Level FlightAware Approximate
04:41PM 49.2931 -108.7359 278° West  Level FlightAware Approximate
04:42PM 49.2992 -108.8001 278° West  Level FlightAware Approximate
04:43PM 49.3053 -108.8643 278° West  Level FlightAware Approximate
04:44PM 49.3114 -108.9285 278° West  Level FlightAware Approximate
04:45PM 49.3174 -108.9928 278° West  Level FlightAware Approximate
04:46PM 49.3234 -109.0570 278° West  Level FlightAware Approximate
04:47PM 49.3294 -109.1212 278° West  Level FlightAware Approximate
04:48PM 49.3353 -109.1855 278° West  Level FlightAware Approximate
04:49PM 49.3412 -109.2498 278° West  Level FlightAware Approximate
04:50PM 49.3470 -109.3141 278° West  Level FlightAware Approximate
04:51PM 49.3528 -109.3784 278° West  Level FlightAware Approximate
04:52PM 49.3586 -109.4427 278° West  Level FlightAware Approximate
04:53PM 49.3643 -109.5071 278° West  Level FlightAware Approximate
04:54PM 49.3703 -109.5714 278° West  Level FlightAware Approximate
04:55PM 49.3763 -109.6357 278° West  Level FlightAware Approximate
04:56PM 49.3822 -109.7000 278° West  Level FlightAware Approximate
04:57PM 49.3882 -109.7644 278° West  Level FlightAware Approximate
04:58PM 49.3941 -109.8287 278° West  Level FlightAware Approximate
04:59PM 49.4000 -109.8931 278° West  Level FlightAware Approximate
05:00PM 49.4058 -109.9575 278° West  Level FlightAware Approximate
05:01PM 49.4116 -110.0219 278° West  Level FlightAware Approximate
05:02PM 49.4174 -110.0863 278° West  Level FlightAware Approximate
05:03PM 49.4231 -110.1507 278° West  Level FlightAware Approximate
05:04PM 49.4288 -110.2151 278° West  Level FlightAware Approximate
05:05PM 49.4345 -110.2796 278° West  Level FlightAware Approximate
05:06PM 49.4401 -110.3441 278° West  Level FlightAware Approximate
05:07PM 49.4457 -110.4085 278° West  Level FlightAware Approximate
05:08PM 49.4512 -110.4731 278° West  Level FlightAware Approximate
05:09PM 49.4567 -110.5376 278° West  Level FlightAware Approximate
05:10PM 49.4622 -110.6021 277° West  Level FlightAware Approximate
05:11PM 49.4677 -110.6666 277° West  Level FlightAware Approximate
05:12PM 49.4731 -110.7312 277° West  Level FlightAware Approximate
05:13PM 49.4784 -110.7958 277° West  Level FlightAware Approximate
05:14PM 49.4838 -110.8604 277° West  Level FlightAware Approximate
05:15PM 49.4891 -110.9250 277° West  Level FlightAware Approximate
05:16PM 49.4943 -110.9896 277° West  Level FlightAware Approximate
05:17PM 49.4996 -111.0542 277° West  Level FlightAware Approximate
05:18PM 49.5047 -111.1188 277° West  Level FlightAware Approximate
05:19PM 49.5099 -111.1835 277° West  Level FlightAware Approximate
05:20PM 49.5150 -111.2482 277° West  Level FlightAware Approximate
05:21PM 49.5201 -111.3129 277° West  Level FlightAware Approximate
05:22PM 49.5252 -111.3775 277° West  Level FlightAware Approximate
05:23PM 49.5302 -111.4423 277° West  Level FlightAware Approximate
05:24PM 49.5357 -111.5069 279° West  Level FlightAware Approximate
05:25PM 49.5422 -111.5713 279° West  Level FlightAware Approximate
05:26PM 49.5486 -111.6357 279° West  Level FlightAware Approximate
05:27PM 49.5542 -111.7003 277° West  Level FlightAware Approximate
05:28PM 49.5596 -111.7650 277° West  Level FlightAware Approximate
05:29PM 49.5650 -111.8297 277° West  Level FlightAware Approximate
05:30PM 49.5697 -111.8945 276° West  Level FlightAware Approximate
05:31PM 49.5740 -111.9594 276° West  Level FlightAware Approximate
05:32PM 49.5783 -112.0243 276° West  Level FlightAware Approximate
05:33PM 49.5826 -112.0892 276° West  Level FlightAware Approximate
05:34PM 49.5869 -112.1541 276° West  Level FlightAware Approximate
05:35PM 49.5912 -112.2190 276° West  Level FlightAware Approximate
05:36PM 49.5955 -112.2839 276° West  Level FlightAware Approximate
05:37PM 49.5997 -112.3489 276° West  Level FlightAware Approximate
05:38PM 49.6039 -112.4138 276° West  Level FlightAware Approximate
05:39PM 49.6080 -112.4788 276° West  Level FlightAware Approximate
05:40PM 49.6121 -112.5437 276° West  Level FlightAware Approximate
05:41PM 49.6162 -112.6087 276° West  Level FlightAware Approximate
05:42PM 49.6167 -112.6740 270° West  Level FlightAware Approximate
05:43PM 49.6167 -112.7393 270° West  Level FlightAware Approximate
05:44PM 49.6167 -112.7833 270° West  Level FlightAware Approximate
05:45PM 49.6303 -112.7997 261° West  Level Estimated
05:46PM 49.6303 -112.7997 142° Southeast  Level Estimated
05:47PM 49.6303 -112.7997 270° West  Level Estimated
05:48PM 49.6303 -112.7997 142° Southeast  Level Estimated
05:49PM 49.6303 -112.7997 142° Southeast  Level Estimated
05:50PM 49.6303 -112.7997 270° West  Level Estimated
05:51PM 49.6303 -112.7997 142° Southeast  Level Estimated
05:52PM 49.6303 -112.7997 142° Southeast  Level Estimated
05:53PM 49.6303 -112.7997 270° West  Level Estimated
05:54PM 49.6303 -112.7997 142° Southeast  Level Estimated
05:55PM 49.6303 -112.7997 142° Southeast  Level Estimated
05:56PM 49.6303 -112.7997 270° West  Level Estimated
05:57PM 49.6303 -112.7997 142° Southeast  Level Estimated
05:58PM 49.6303 -112.7997 142° Southeast  Level Estimated
05:59PM 49.6303 -112.7997 270° West  Level Estimated